Time;durP1;ratioP1;P1;durP2;ratioP2;P2;SDS_P1;SDS_P2;PMS_P1;PMS_P2;Temp;Humidity;BMP_temperature;BMP_pressure;BME280_temperature;BME280_humidity;BME280_pressure;Samples;Min_cycle;Max_cycle;Signal;HPM_P1;HPM_P2
2023/05/04 00:00:15;;;;;;;;;;;;;;;15.91;84.64;98533.91;5083780;28;20011;-70
2023/05/04 00:02:42;;;;;;;;;;;;;;;15.90;84.62;98537.72;5083752;28;19932;-70
2023/05/04 00:05:09;;;;;;;;;;;;;;;15.83;85.25;98538.03;5080259;28;19924;-70
2023/05/04 00:07:35;;;;;;;;;;;;;;;15.80;85.27;98538.59;5078910;28;19924;-69
2023/05/04 00:10:01;;;;;;;;;;;;;;;15.76;84.76;98539.41;5080625;28;19924;-70
2023/05/04 00:12:28;;;;;;;;;;;;;;;15.65;86.05;98536.03;5080120;28;19928;-70
2023/05/04 00:14:54;;;;;;;;;;;;;;;15.68;86.68;98535.44;5081324;28;19984;-70
2023/05/04 00:17:22;;;;;;;;;;;;;;;15.72;85.84;98530.31;5083337;28;19931;-70
2023/05/04 00:19:49;;;;;;;;;;;;;;;15.64;85.52;98529.81;5082793;28;19925;-70
2023/05/04 00:22:15;;;;;;;;;;;;;;;15.65;85.46;98530.63;5079762;28;19960;-70
2023/05/04 00:24:42;;;;;;;;;;;;;;;15.69;85.10;98528.97;5079891;28;19920;-73
2023/05/04 00:27:09;;;;;;;;;;;;;;;15.65;84.90;98533.31;5082903;28;19924;-71
2023/05/04 00:29:35;;;;;;;;;;;;;;;15.68;84.95;98530.06;5083248;28;19924;-70
2023/05/04 00:32:02;;;;;;;;;;;;;;;15.57;84.32;98528.50;5081335;28;19958;-70
2023/05/04 00:34:31;;;;;;;;;;;;;;;15.43;85.44;98531.00;5081515;28;19925;-70
2023/05/04 00:36:57;;;;;;;;;;;;;;;15.40;87.17;98533.47;5073869;28;19928;-70
2023/05/04 00:39:23;;;;;;;;;;;;;;;15.44;86.42;98529.13;5081872;28;19924;-70
2023/05/04 00:41:50;;;;;;;;;;;;;;;15.47;85.94;98528.56;5082423;28;19950;-70
2023/05/04 00:44:16;;;;;;;;;;;;;;;15.50;85.74;98523.47;5079575;28;19948;-71
2023/05/04 00:46:42;;;;;;;;;;;;;;;15.39;86.00;98521.88;5079318;28;19967;-71
2023/05/04 00:49:09;;;;;;;;;;;;;;;15.01;88.71;98522.63;5081495;28;19924;-71
2023/05/04 00:51:37;;;;;;;;;;;;;;;15.18;89.40;98522.28;5082201;28;20252;-70
2023/05/04 00:54:04;;;;;;;;;;;;;;;15.26;88.15;98516.31;5080248;28;19920;-70
2023/05/04 00:56:31;;;;;;;;;;;;;;;15.34;87.19;98513.03;5078172;28;19964;-71
2023/05/04 00:58:57;;;;;;;;;;;;;;;15.36;86.72;98518.94;5080992;28;19955;-70
2023/05/04 01:01:24;;;;;;;;;;;;;;;15.39;87.12;98515.69;5082532;28;20415;-70
2023/05/04 01:03:51;;;;;;;;;;;;;;;15.36;87.45;98519.75;5081755;28;19920;-70
2023/05/04 01:06:22;;;;;;;;;;;;;;;15.39;87.42;98518.38;5070881;28;19959;-70
2023/05/04 01:08:55;;;;;;;;;;;;;;;15.39;87.12;98523.75;5079633;28;19951;-70
2023/05/04 01:11:26;;;;;;;;;;;;;;;15.40;87.53;98528.88;5082693;28;19920;-70
2023/05/04 01:13:53;;;;;;;;;;;;;;;15.36;87.85;98517.06;5081437;28;19996;-71
2023/05/04 01:16:20;;;;;;;;;;;;;;;15.38;88.08;98519.47;5078948;28;19925;-70
2023/05/04 01:18:47;;;;;;;;;;;;;;;15.38;88.25;98525.66;5079048;28;19935;-70
2023/05/04 01:21:13;;;;;;;;;;;;;;;15.30;88.55;98528.94;5081084;28;19984;-70
2023/05/04 01:23:41;;;;;;;;;;;;;;;15.30;88.44;98528.13;5082470;28;19927;-70
2023/05/04 01:26:13;;;;;;;;;;;;;;;15.28;88.82;98530.31;5079071;28;19921;-70
2023/05/04 01:28:42;;;;;;;;;;;;;;;15.30;88.68;98525.44;5078771;28;20405;-70
2023/05/04 01:31:09;;;;;;;;;;;;;;;15.25;88.90;98526.28;5081974;28;19928;-69
2023/05/04 01:33:36;;;;;;;;;;;;;;;15.24;88.86;98529.25;5082280;28;19930;-69
2023/05/04 01:36:03;;;;;;;;;;;;;;;15.22;88.90;98523.34;5071501;28;20000;-69
2023/05/04 01:38:29;;;;;;;;;;;;;;;15.23;89.08;98523.06;5079069;28;20596;-69
2023/05/04 01:40:57;;;;;;;;;;;;;;;15.21;89.00;98519.03;5080438;28;19925;-69
2023/05/04 01:43:24;;;;;;;;;;;;;;;15.16;89.22;98521.75;5081308;28;19924;-69
2023/05/04 01:45:50;;;;;;;;;;;;;;;15.15;89.31;98510.19;5081364;28;19924;-69
2023/05/04 01:48:17;;;;;;;;;;;;;;;15.14;89.39;98517.44;5078443;28;19921;-69
2023/05/04 01:50:43;;;;;;;;;;;;;;;15.15;89.22;98515.56;5078742;28;19932;-69
2023/05/04 01:53:09;;;;;;;;;;;;;;;15.13;89.27;98507.75;5081803;28;19935;-69
2023/05/04 01:55:36;;;;;;;;;;;;;;;15.10;89.36;98511.00;5081822;28;19921;-69
2023/05/04 01:58:04;;;;;;;;;;;;;;;15.13;89.50;98513.16;5079270;28;19931;-69
2023/05/04 02:00:30;;;;;;;;;;;;;;;15.10;89.58;98504.84;5078082;28;19924;-69
2023/05/04 02:02:56;;;;;;;;;;;;;;;15.08;89.51;98504.31;5079481;28;19951;-69
2023/05/04 02:05:23;;;;;;;;;;;;;;;15.05;89.56;98504.84;5075067;28;19924;-69
2023/05/04 02:07:49;;;;;;;;;;;;;;;15.06;89.65;98501.91;5078255;28;20650;-69
2023/05/04 02:10:16;;;;;;;;;;;;;;;15.03;89.59;98497.09;5079107;28;19966;-69
2023/05/04 02:12:42;;;;;;;;;;;;;;;15.00;90.07;98505.72;5079284;28;19984;-69
2023/05/04 02:15:10;;;;;;;;;;;;;;;14.92;90.46;98497.38;5081800;28;19928;-69
2023/05/04 02:17:37;;;;;;;;;;;;;;;14.94;90.38;98504.13;5080563;28;19932;-69
2023/05/04 02:20:04;;;;;;;;;;;;;;;14.89;90.44;98496.06;5078748;28;19952;-69
2023/05/04 02:22:30;;;;;;;;;;;;;;;14.93;90.59;98491.75;5077788;28;19931;-69
2023/05/04 02:24:56;;;;;;;;;;;;;;;14.88;90.48;98499.03;5079328;28;19921;-69
2023/05/04 02:27:23;;;;;;;;;;;;;;;14.89;90.69;98495.25;5081213;28;19960;-69
2023/05/04 02:29:49;;;;;;;;;;;;;;;14.82;90.94;98492.06;5080320;28;19947;-69
2023/05/04 02:32:17;;;;;;;;;;;;;;;14.84;90.57;98492.59;5076229;28;19960;-69
2023/05/04 02:34:43;;;;;;;;;;;;;;;14.84;90.63;98482.66;5077394;28;19936;-69
2023/05/04 02:37:10;;;;;;;;;;;;;;;14.82;90.73;98497.47;5080845;28;19984;-69
2023/05/04 02:39:36;;;;;;;;;;;;;;;14.75;90.97;98489.69;5080942;28;19925;-69
2023/05/04 02:42:02;;;;;;;;;;;;;;;14.76;91.10;98496.66;5078407;28;19929;-69
2023/05/04 02:44:29;;;;;;;;;;;;;;;14.76;91.36;98491.28;5077338;28;19924;-69
2023/05/04 02:46:55;;;;;;;;;;;;;;;14.73;91.25;98488.34;5077309;28;19972;-69
2023/05/04 02:49:23;;;;;;;;;;;;;;;14.67;91.24;98494.84;5080846;28;19920;-69
2023/05/04 02:51:49;;;;;;;;;;;;;;;14.67;91.63;98495.63;5080653;28;19974;-69
2023/05/04 02:54:16;;;;;;;;;;;;;;;14.64;91.74;98493.47;5078098;28;19988;-69
2023/05/04 02:56:42;;;;;;;;;;;;;;;14.67;91.41;98498.31;5078066;28;19936;-69
2023/05/04 02:59:08;;;;;;;;;;;;;;;14.65;91.68;98495.09;5081140;28;19929;-69
2023/05/04 03:01:35;;;;;;;;;;;;;;;14.63;91.44;98494.56;5081715;28;19925;-69
2023/05/04 03:04:02;;;;;;;;;;;;;;;14.64;91.65;98506.13;5078974;28;19987;-70
2023/05/04 03:06:29;;;;;;;;;;;;;;;14.60;91.79;98508.56;5069584;28;19924;-70
2023/05/04 03:08:56;;;;;;;;;;;;;;;14.61;91.82;98507.47;5079877;28;19936;-70
2023/05/04 03:11:22;;;;;;;;;;;;;;;14.59;92.00;98501.56;5080908;28;19920;-70
2023/05/04 03:13:49;;;;;;;;;;;;;;;14.52;92.09;98504.53;5080215;28;19931;-70
2023/05/04 03:16:16;;;;;;;;;;;;;;;14.48;92.55;98505.38;5077300;28;19960;-70
2023/05/04 03:18:42;;;;;;;;;;;;;;;14.41;92.81;98507.53;5077421;28;19951;-69
2023/05/04 03:21:08;;;;;;;;;;;;;;;14.45;92.86;98514.00;5078873;28;20488;-70
2023/05/04 03:23:36;;;;;;;;;;;;;;;14.45;92.87;98506.72;5079425;28;20011;-70
2023/05/04 03:26:03;;;;;;;;;;;;;;;14.46;92.67;98508.31;5076689;28;19928;-70
2023/05/04 03:28:29;;;;;;;;;;;;;;;14.47;92.55;98498.38;5076799;28;19936;-70
2023/05/04 03:30:55;;;;;;;;;;;;;;;14.46;92.89;98502.94;5078347;28;19925;-70
2023/05/04 03:33:22;;;;;;;;;;;;;;;14.48;92.64;98506.16;5080172;28;19952;-70
2023/05/04 03:35:48;;;;;;;;;;;;;;;14.47;92.36;98499.19;5071399;28;19932;-70
2023/05/04 03:38:15;;;;;;;;;;;;;;;14.48;92.34;98505.38;5076302;28;19936;-70
2023/05/04 03:40:43;;;;;;;;;;;;;;;14.46;92.32;98502.94;5068340;28;19952;-70
2023/05/04 03:43:09;;;;;;;;;;;;;;;14.41;92.44;98510.22;5079920;28;20015;-70
2023/05/04 03:45:35;;;;;;;;;;;;;;;14.38;92.51;98511.59;5080284;28;19952;-70
2023/05/04 03:48:02;;;;;;;;;;;;;;;14.37;92.73;98506.47;5078368;28;19925;-70
2023/05/04 03:50:29;;;;;;;;;;;;;;;14.37;92.96;98507.28;5075937;28;19985;-70
2023/05/04 03:52:55;;;;;;;;;;;;;;;14.35;92.70;98511.31;5078093;28;19925;-70
2023/05/04 03:55:21;;;;;;;;;;;;;;;14.39;92.65;98517.78;5080098;28;20057;-70
2023/05/04 03:57:49;;;;;;;;;;;;;;;14.35;92.73;98508.63;5080838;28;19924;-70
2023/05/04 04:00:16;;;;;;;;;;;;;;;14.36;92.58;98504.88;5075626;28;20430;-70
2023/05/04 04:02:43;;;;;;;;;;;;;;;14.33;92.62;98505.38;5076631;28;19936;-69
2023/05/04 04:05:09;;;;;;;;;;;;;;;14.33;92.50;98516.94;5076353;28;20137;-70
2023/05/04 04:07:35;;;;;;;;;;;;;;;14.37;92.40;98512.66;5074998;28;19987;-70
2023/05/04 04:10:02;;;;;;;;;;;;;;;14.37;92.20;98509.97;5076288;28;19948;-69
2023/05/04 04:12:28;;;;;;;;;;;;;;;14.30;92.39;98508.59;5076434;28;19960;-68
2023/05/04 04:14:56;;;;;;;;;;;;;;;14.30;92.42;98504.03;5077825;28;20458;-70
2023/05/04 04:17:22;;;;;;;;;;;;;;;14.29;92.46;98513.19;5079952;28;20004;-69
2023/05/04 04:19:49;;;;;;;;;;;;;;;14.29;92.60;98507.00;5079436;28;19991;-69
2023/05/04 04:22:15;;;;;;;;;;;;;;;14.26;92.61;98502.97;5075336;28;20005;-69
2023/05/04 04:24:41;;;;;;;;;;;;;;;14.21;92.94;98510.22;5076425;28;19924;-69
2023/05/04 04:27:08;;;;;;;;;;;;;;;14.19;93.53;98509.69;5083324;28;20356;-69
2023/05/04 04:29:34;;;;;;;;;;;;;;;14.19;93.40;98505.13;5083875;28;19925;-69
2023/05/04 04:32:02;;;;;;;;;;;;;;;14.14;93.62;98507.03;5081527;28;19935;-69
2023/05/04 04:34:29;;;;;;;;;;;;;;;14.14;94.06;98510.53;5080055;28;19925;-69
2023/05/04 04:36:56;;;;;;;;;;;;;;;13.93;94.55;98503.53;5073362;28;19925;-70
2023/05/04 04:39:23;;;;;;;;;;;;;;;13.89;95.68;98511.38;5083965;28;19943;-70
2023/05/04 04:41:49;;;;;;;;;;;;;;;13.82;96.80;98516.19;5083810;28;19921;-70
2023/05/04 04:44:15;;;;;;;;;;;;;;;13.79;96.86;98518.59;5080793;28;19935;-70
2023/05/04 04:46:43;;;;;;;;;;;;;;;13.90;96.04;98514.81;5079305;28;19956;-70
2023/05/04 04:49:11;;;;;;;;;;;;;;;13.81;96.08;98528.00;5083718;28;19944;-70
2023/05/04 04:51:39;;;;;;;;;;;;;;;13.43;98.96;98525.84;5082297;28;19925;-70
2023/05/04 04:54:06;;;;;;;;;;;;;;;13.35;98.99;98523.66;5079409;28;19964;-70
2023/05/04 04:56:32;;;;;;;;;;;;;;;13.65;98.68;98529.06;5079874;28;19925;-70
2023/05/04 04:58:59;;;;;;;;;;;;;;;13.80;96.93;98526.38;5081465;28;19968;-70
2023/05/04 05:01:26;;;;;;;;;;;;;;;13.86;96.14;98524.50;5083168;28;19930;-70
2023/05/04 05:03:52;;;;;;;;;;;;;;;13.64;96.98;98522.09;5082090;28;19925;-70
2023/05/04 05:06:20;;;;;;;;;;;;;;;13.27;99.42;98532.22;5071194;28;19984;-70
2023/05/04 05:08:46;;;;;;;;;;;;;;;13.38;100.00;98533.84;5079677;28;19956;-70
2023/05/04 05:11:13;;;;;;;;;;;;;;;13.61;99.43;98541.41;5082878;28;19924;-70
2023/05/04 05:13:39;;;;;;;;;;;;;;;13.61;98.71;98545.97;5083186;28;19988;-70
2023/05/04 05:16:05;;;;;;;;;;;;;;;13.67;98.36;98539.53;5079704;28;19984;-70
2023/05/04 05:18:32;;;;;;;;;;;;;;;13.64;98.81;98537.38;5080631;28;20023;-70
2023/05/04 05:20:59;;;;;;;;;;;;;;;13.52;99.24;98540.34;5081825;28;19963;-70
2023/05/04 05:23:27;;;;;;;;;;;;;;;13.22;100.00;98554.47;5082833;28;19924;-69
2023/05/04 05:25:54;;;;;;;;;;;;;;;13.26;100.00;98558.25;5081368;28;19975;-70
2023/05/04 05:28:20;;;;;;;;;;;;;;;13.45;100.00;98554.00;5078748;28;19925;-70
2023/05/04 05:30:48;;;;;;;;;;;;;;;13.63;99.56;98547.31;5079199;28;19925;-71
2023/05/04 05:33:15;;;;;;;;;;;;;;;13.55;100.00;98553.22;5081252;28;19931;-71
2023/05/04 05:35:42;;;;;;;;;;;;;;;13.42;100.00;98551.84;5074190;28;19924;-71
2023/05/04 05:38:09;;;;;;;;;;;;;;;13.20;100.00;98561.19;5078781;28;19964;-71
2023/05/04 05:40:37;;;;;;;;;;;;;;;13.43;100.00;98550.75;5078622;28;20007;-71
2023/05/04 05:43:04;;;;;;;;;;;;;;;13.52;100.00;98551.06;5079959;28;20413;-71
2023/05/04 05:45:30;;;;;;;;;;;;;;;13.79;99.78;98551.63;5081109;28;19921;-71
2023/05/04 05:47:57;;;;;;;;;;;;;;;13.68;100.00;98555.34;5078923;28;19925;-71
2023/05/04 05:50:23;;;;;;;;;;;;;;;13.86;99.42;98559.41;5078603;28;20027;-71
2023/05/04 05:52:50;;;;;;;;;;;;;;;14.13;97.76;98551.06;5079142;28;19924;-71
2023/05/04 05:55:16;;;;;;;;;;;;;;;14.31;96.53;98545.13;5082031;28;19990;-71
2023/05/04 05:57:44;;;;;;;;;;;;;;;14.28;95.80;98543.00;5081848;28;19939;-71
2023/05/04 06:00:11;;;;;;;;;;;;;;;14.29;96.45;98539.25;5078525;28;19925;-71
2023/05/04 06:02:37;;;;;;;;;;;;;;;14.18;97.66;98540.31;5078311;28;19963;-71
2023/05/04 06:05:04;;;;;;;;;;;;;;;14.15;98.55;98535.47;5077017;28;19952;-71
2023/05/04 06:07:30;;;;;;;;;;;;;;;14.28;98.03;98540.31;5074893;28;19992;-71
2023/05/04 06:09:57;;;;;;;;;;;;;;;14.49;97.45;98539.22;5079808;28;19980;-71
2023/05/04 06:12:23;;;;;;;;;;;;;;;14.49;96.78;98544.59;5078039;28;19968;-71
2023/05/04 06:14:51;;;;;;;;;;;;;;;14.48;96.71;98545.69;5078387;28;19959;-71
2023/05/04 06:17:17;;;;;;;;;;;;;;;14.74;96.15;98546.41;5081291;28;19925;-71
2023/05/04 06:19:44;;;;;;;;;;;;;;;15.13;93.86;98545.44;5081268;28;19924;-71
2023/05/04 06:22:11;;;;;;;;;;;;;;;15.31;91.77;98548.59;5077918;28;19935;-71
2023/05/04 06:24:37;;;;;;;;;;;;;;;15.38;91.40;98541.78;5077868;28;19971;-71
2023/05/04 06:27:03;;;;;;;;;;;;;;;15.39;92.01;98532.66;5080169;28;19925;-71
2023/05/04 06:29:30;;;;;;;;;;;;;;;15.51;90.94;98535.03;5081278;28;19967;-71
2023/05/04 06:31:58;;;;;;;;;;;;;;;15.25;92.32;98534.34;5079700;28;19978;-71
2023/05/04 06:34:25;;;;;;;;;;;;;;;15.00;95.70;98529.09;5077737;28;19971;-71
2023/05/04 06:36:51;;;;;;;;;;;;;;;14.85;95.73;98540.75;5070100;28;19921;-71
2023/05/04 06:39:18;;;;;;;;;;;;;;;14.94;97.15;98539.09;5080994;28;19924;-71
2023/05/04 06:41:44;;;;;;;;;;;;;;;15.20;95.85;98530.88;5080992;28;19924;-72
2023/05/04 06:44:10;;;;;;;;;;;;;;;14.94;95.85;98531.03;5077446;28;19924;-71
2023/05/04 06:46:37;;;;;;;;;;;;;;;15.35;96.61;98530.81;5077504;28;19960;-71
2023/05/04 06:49:04;;;;;;;;;;;;;;;15.42;94.40;98525.91;5077864;28;20000;-71
2023/05/04 06:51:31;;;;;;;;;;;;;;;15.34;95.55;98535.38;5080993;28;19925;-71
2023/05/04 06:53:58;;;;;;;;;;;;;;;15.37;92.19;98531.31;5079295;28;19962;-71
2023/05/04 06:56:25;;;;;;;;;;;;;;;15.08;94.18;98536.59;5075953;28;19996;-71
2023/05/04 06:58:51;;;;;;;;;;;;;;;15.02;98.35;98527.75;5078042;28;19931;-72
2023/05/04 07:01:18;;;;;;;;;;;;;;;15.24;97.40;98531.94;5079625;28;19925;-71
2023/05/04 07:03:44;;;;;;;;;;;;;;;15.33;95.06;98532.94;5080882;28;19964;-71
2023/05/04 07:06:12;;;;;;;;;;;;;;;15.58;94.43;98527.44;5069066;28;20672;-70
2023/05/04 07:08:38;;;;;;;;;;;;;;;15.39;93.87;98531.84;5077323;28;19966;-70
2023/05/04 07:11:05;;;;;;;;;;;;;;;14.95;96.42;98529.91;5079896;28;19925;-71
2023/05/04 07:13:31;;;;;;;;;;;;;;;15.37;97.15;98531.31;5079466;28;19924;-71
2023/05/04 07:15:57;;;;;;;;;;;;;;;15.31;95.20;98525.16;5078909;28;19921;-70
2023/05/04 07:18:24;;;;;;;;;;;;;;;14.76;97.58;98523.53;5077003;28;19936;-70
2023/05/04 07:20:50;;;;;;;;;;;;;;;15.16;99.55;98522.56;5077789;28;19963;-70
2023/05/04 07:23:18;;;;;;;;;;;;;;;15.13;98.90;98523.91;5080773;28;19992;-69
2023/05/04 07:25:44;;;;;;;;;;;;;;;14.59;100.00;98523.88;5081156;28;19924;-69
2023/05/04 07:28:11;;;;;;;;;;;;;;;14.49;100.00;98512.34;5077812;28;19947;-69
2023/05/04 07:30:37;;;;;;;;;;;;;;;14.66;100.00;98507.47;5077280;28;19920;-70
2023/05/04 07:33:03;;;;;;;;;;;;;;;14.30;100.00;98508.59;5079131;28;19933;-69
2023/05/04 07:35:30;;;;;;;;;;;;;;;14.17;100.00;98498.44;5074131;28;19925;-69
2023/05/04 07:37:56;;;;;;;;;;;;;;;14.13;100.00;98508.09;5077294;28;19951;-70
2023/05/04 07:40:24;;;;;;;;;;;;;;;14.06;100.00;98506.50;5079478;28;20280;-70
2023/05/04 07:42:50;;;;;;;;;;;;;;;14.18;100.00;98514.25;5083763;28;19917;-71
2023/05/04 07:45:17;;;;;;;;;;;;;;;14.11;100.00;98504.88;5088047;28;19952;-71
2023/05/04 07:47:43;;;;;;;;;;;;;;;13.97;100.00;98502.75;5088598;28;19935;-71
2023/05/04 07:50:10;;;;;;;;;;;;;;;13.85;100.00;98498.72;5084399;28;19912;-70
2023/05/04 07:52:36;;;;;;;;;;;;;;;13.98;100.00;98500.88;5083451;28;19947;-70
2023/05/04 07:55:02;;;;;;;;;;;;;;;14.21;100.00;98499.47;5085677;28;19925;-71
2023/05/04 07:57:31;;;;;;;;;;;;;;;14.31;100.00;98513.72;5081383;28;19935;-71
2023/05/04 07:59:57;;;;;;;;;;;;;;;14.35;100.00;98500.56;5080818;28;19974;-71
2023/05/04 08:02:23;;;;;;;;;;;;;;;14.61;100.00;98499.41;5079395;28;19975;-70
2023/05/04 08:04:50;;;;;;;;;;;;;;;14.61;100.00;98493.25;5080503;28;19991;-70
2023/05/04 08:07:17;;;;;;;;;;;;;;;14.51;100.00;98494.84;5076369;28;19954;-71
2023/05/04 08:09:44;;;;;;;;;;;;;;;14.39;100.00;98490.91;5083971;28;19924;-71
2023/05/04 08:12:11;;;;;;;;;;;;;;;14.68;100.00;98493.72;5080498;28;19964;-71
2023/05/04 08:14:38;;;;;;;;;;;;;;;14.66;100.00;98496.72;5080392;28;20116;-70
2023/05/04 08:17:05;;;;;;;;;;;;;;;14.76;100.00;98496.66;5081620;28;20445;-71
2023/05/04 08:19:31;;;;;;;;;;;;;;;14.84;100.00;98490.72;5083735;28;19963;-71
2023/05/04 08:21:58;;;;;;;;;;;;;;;14.99;100.00;98490.63;5082122;28;19924;-71
2023/05/04 08:24:24;;;;;;;;;;;;;;;15.31;100.00;98492.88;5080147;28;19924;-71
2023/05/04 08:26:51;;;;;;;;;;;;;;;15.90;100.00;98484.66;5080748;28;19951;-71
2023/05/04 08:29:17;;;;;;;;;;;;;;;15.80;99.44;98486.63;5083443;28;19980;-71
2023/05/04 08:31:47;;;;;;;;;;;;;;;15.60;100.00;98492.94;5083488;28;19987;-71
2023/05/04 08:34:13;;;;;;;;;;;;;;;15.53;100.00;98492.50;5079904;28;19924;-70
2023/05/04 08:36:40;;;;;;;;;;;;;;;15.46;100.00;98482.00;5071629;28;19924;-70
2023/05/04 08:39:06;;;;;;;;;;;;;;;15.20;100.00;98480.56;5082758;28;19936;-70
2023/05/04 08:41:33;;;;;;;;;;;;;;;15.36;100.00;98478.56;5083202;28;20468;-70
2023/05/04 08:43:59;;;;;;;;;;;;;;;15.48;100.00;98479.06;5081314;28;19972;-70
2023/05/04 08:46:29;;;;;;;;;;;;;;;15.57;100.00;98477.38;5079796;28;19987;-71
2023/05/04 08:48:57;;;;;;;;;;;;;;;16.26;100.00;98476.19;5080652;28;19960;-71
2023/05/04 08:51:24;;;;;;;;;;;;;;;15.98;98.57;98480.53;5082985;28;19932;-72
2023/05/04 08:53:50;;;;;;;;;;;;;;;15.91;99.34;98486.22;5082497;28;19932;-71
2023/05/04 08:56:17;;;;;;;;;;;;;;;15.77;98.89;98473.72;5080834;28;19928;-71
2023/05/04 08:58:48;;;;;;;;;;;;;;;15.76;100.00;98483.69;5079586;28;19960;-69
2023/05/04 09:01:15;;;;;;;;;;;;;;;16.11;100.00;98486.06;5074996;28;19970;-70
2023/05/04 09:03:42;;;;;;;;;;;;;;;15.89;93.82;98480.34;5082854;28;19921;-70
2023/05/04 09:06:10;;;;;;;;;;;;;;;15.92;93.02;98473.56;5069864;28;20000;-70
2023/05/04 09:08:37;;;;;;;;;;;;;;;16.02;94.06;98485.06;5079041;28;19924;-70
2023/05/04 09:11:03;;;;;;;;;;;;;;;16.15;91.39;98476.28;5080684;28;19957;-70
2023/05/04 09:13:29;;;;;;;;;;;;;;;16.04;85.89;98468.59;5082531;28;19928;-70
2023/05/04 09:15:56;;;;;;;;;;;;;;;15.99;87.61;98472.16;5081178;28;19956;-70
2023/05/04 09:18:23;;;;;;;;;;;;;;;15.87;87.21;98481.72;5079073;28;19925;-71
2023/05/04 09:20:49;;;;;;;;;;;;;;;15.92;87.01;98479.78;5079516;28;20187;-71
2023/05/04 09:23:17;;;;;;;;;;;;;;;16.16;87.24;98482.50;5082392;28;19950;-71
2023/05/04 09:25:47;;;;;;;;;;;;;;;16.19;86.77;98481.91;5082524;28;20018;-71
2023/05/04 09:28:14;;;;;;;;;;;;;;;16.24;88.41;98481.09;5070557;28;19925;-71
2023/05/04 09:30:40;;;;;;;;;;;;;;;16.28;87.05;98465.97;5077823;28;19924;-71
2023/05/04 09:33:06;;;;;;;;;;;;;;;16.39;84.09;98470.13;5079943;28;19963;-71
2023/05/04 09:35:33;;;;;;;;;;;;;;;16.36;80.89;98471.53;5079270;28;19956;-71
2023/05/04 09:37:59;;;;;;;;;;;;;;;16.46;80.30;98471.41;5079069;28;20028;-70
2023/05/04 09:40:37;;;;;;;;;;;;;;;16.34;78.52;98473.69;5078765;28;19952;-72
2023/05/04 09:43:05;;;;;;;;;;;;;;;16.44;80.50;98462.78;5080912;28;19970;-71
2023/05/04 09:45:41;;;;;;;;;;;;;;;16.45;78.01;98459.00;5080871;28;19947;-71
2023/05/04 09:48:18;;;;;;;;;;;;;;;16.47;79.81;98456.00;5077619;28;19925;-71
2023/05/04 09:50:49;;;;;;;;;;;;;;;16.46;78.08;98455.22;5078430;28;19925;-71
2023/05/04 09:53:17;;;;;;;;;;;;;;;16.74;76.25;98456.28;5076881;28;19935;-71
2023/05/04 09:55:45;;;;;;;;;;;;;;;16.56;77.42;98452.44;5076228;28;19929;-71
2023/05/04 09:58:14;;;;;;;;;;;;;;;16.70;76.72;98460.63;5073502;28;20667;-70
2023/05/04 10:00:41;;;;;;;;;;;;;;;16.80;76.94;98452.41;5081613;28;19932;-71
2023/05/04 10:03:08;;;;;;;;;;;;;;;17.19;75.66;98452.94;5078534;28;19940;-71
2023/05/04 10:05:34;;;;;;;;;;;;;;;17.17;74.04;98447.03;5077560;28;19999;-70
2023/05/04 10:08:01;;;;;;;;;;;;;;;17.23;72.71;98447.75;5077969;28;19996;-70
2023/05/04 10:10:27;;;;;;;;;;;;;;;16.83;73.41;98438.34;5077843;28;19925;-71
2023/05/04 10:12:55;;;;;;;;;;;;;;;16.82;75.01;98444.81;5078730;28;19929;-71
2023/05/04 10:15:23;;;;;;;;;;;;;;;17.04;77.20;98436.16;5081399;28;19951;-71
2023/05/04 10:17:58;;;;;;;;;;;;;;;17.13;75.05;98429.81;5080628;28;19996;-71
2023/05/04 10:20:37;;;;;;;;;;;;;;;16.94;74.45;98431.72;5077705;28;19925;-71
2023/05/04 10:23:16;;;;;;;;;;;;;;;16.91;75.59;98429.59;5079871;28;19951;-71
2023/05/04 10:26:01;;;;;;;;;;;;;;;16.89;75.11;98420.19;5081241;28;19928;-71
2023/05/04 10:28:35;;;;;;;;;;;;;;;17.15;75.85;98418.72;5054091;28;19924;-71
2023/05/04 10:31:03;;;;;;;;;;;;;;;17.31;72.68;98420.09;5078915;28;19956;-71
2023/05/04 10:33:37;;;;;;;;;;;;;;;17.41;68.94;98419.94;5077808;28;19931;-71
2023/05/04 10:36:04;;;;;;;;;;;;;;;17.43;67.61;98408.81;5076171;28;19948;-71
2023/05/04 10:38:34;;;;;;;;;;;;;;;17.45;67.02;98415.56;5077719;28;19968;-71
2023/05/04 10:41:00;;;;;;;;;;;;;;;17.45;66.74;98406.66;5083346;28;19925;-70
2023/05/04 10:43:27;;;;;;;;;;;;;;;17.72;70.23;98395.94;5075020;28;19921;-71
2023/05/04 10:45:57;;;;;;;;;;;;;;;17.61;63.22;98394.50;5079981;28;20624;-71
2023/05/04 10:48:33;;;;;;;;;;;;;;;17.73;61.45;98394.84;5077526;28;19940;-71
2023/05/04 10:51:01;;;;;;;;;;;;;;;17.75;62.31;98392.66;5079994;28;20142;-70
2023/05/04 10:53:31;;;;;;;;;;;;;;;17.76;62.16;98386.16;5081941;28;19955;-71
2023/05/04 10:55:57;;;;;;;;;;;;;;;17.76;60.41;98386.94;5079354;28;19920;-71
2023/05/04 10:58:27;;;;;;;;;;;;;;;17.81;60.51;98383.34;5077670;28;19989;-70
2023/05/04 11:00:54;;;;;;;;;;;;;;;17.93;62.16;98380.97;5078861;28;19980;-71
2023/05/04 11:03:23;;;;;;;;;;;;;;;17.99;60.23;98373.56;5079854;28;19925;-71
2023/05/04 11:05:51;;;;;;;;;;;;;;;17.79;58.78;98370.13;5072293;28;20007;-71
2023/05/04 11:08:18;;;;;;;;;;;;;;;17.80;59.25;98371.75;5077447;28;19925;-71
2023/05/04 11:10:45;;;;;;;;;;;;;;;17.79;60.73;98364.72;5077755;28;20581;-85
2023/05/04 11:13:12;;;;;;;;;;;;;;;17.72;61.03;98364.34;5075922;28;19951;-71
2023/05/04 11:15:59;;;;;;;;;;;;;;;17.83;61.42;98364.94;5077045;28;19928;-71
2023/05/04 11:18:27;;;;;;;;;;;;;;;17.87;60.15;98349.75;5068858;28;19955;-71
2023/05/04 11:20:54;;;;;;;;;;;;;;;18.02;61.17;98345.94;5077576;28;19935;-71
2023/05/04 11:23:21;;;;;;;;;;;;;;;18.12;59.38;98351.16;5077259;28;19925;-71
2023/05/04 11:25:48;;;;;;;;;;;;;;;18.37;58.32;98347.13;5077711;28;19925;-70
2023/05/04 11:28:14;;;;;;;;;;;;;;;18.26;57.90;98347.31;5080635;28;19979;-71
2023/05/04 11:30:42;;;;;;;;;;;;;;;18.27;59.32;98348.13;5079765;28;19920;-71
2023/05/04 11:33:11;;;;;;;;;;;;;;;18.37;59.31;98345.22;5077522;28;19925;-72
2023/05/04 11:35:39;;;;;;;;;;;;;;;18.32;59.72;98343.41;5078920;28;19925;-71
2023/05/04 11:38:06;;;;;;;;;;;;;;;18.49;59.68;98339.28;5081158;28;19984;-70
2023/05/04 11:40:33;;;;;;;;;;;;;;;18.50;59.05;98339.03;5080423;28;19929;-71
2023/05/04 11:43:00;;;;;;;;;;;;;;;18.39;56.98;98329.47;5083693;28;19947;-71
2023/05/04 11:45:28;;;;;;;;;;;;;;;18.47;55.46;98330.69;5085610;28;19924;-71
2023/05/04 11:47:55;;;;;;;;;;;;;;;18.48;55.04;98324.97;5084011;28;19960;-70
2023/05/04 11:50:22;;;;;;;;;;;;;;;18.60;57.67;98330.66;5081463;28;19921;-71
2023/05/04 11:52:49;;;;;;;;;;;;;;;18.55;53.08;98319.16;5080340;28;19944;-71
2023/05/04 11:55:25;;;;;;;;;;;;;;;18.67;53.52;98314.81;5083489;28;20657;-70
2023/05/04 11:57:55;;;;;;;;;;;;;;;18.77;52.59;98330.03;5083817;28;19958;-70
2023/05/04 12:00:22;;;;;;;;;;;;;;;18.72;49.23;98316.63;5081021;28;19956;-70
2023/05/04 12:02:55;;;;;;;;;;;;;;;18.77;50.73;98303.78;5081976;28;19925;-71
2023/05/04 12:05:21;;;;;;;;;;;;;;;18.81;48.21;98317.50;5081853;28;19920;-71
2023/05/04 12:07:48;;;;;;;;;;;;;;;18.82;46.04;98314.47;5085842;28;19938;-71
2023/05/04 12:10:25;;;;;;;;;;;;;;;18.71;46.37;98312.31;5088541;28;19920;-71
2023/05/04 12:12:51;;;;;;;;;;;;;;;18.78;46.03;98304.59;5088306;28;19977;-71
2023/05/04 12:15:27;;;;;;;;;;;;;;;18.70;48.86;98297.97;5090203;28;19920;-70
2023/05/04 12:17:53;;;;;;;;;;;;;;;18.76;47.51;98285.94;5083484;28;19935;-70
2023/05/04 12:20:23;;;;;;;;;;;;;;;18.96;46.45;98298.19;5080403;28;20004;-71
2023/05/04 12:22:49;;;;;;;;;;;;;;;18.97;43.56;98290.88;5080465;28;19988;-71
2023/05/04 12:25:17;;;;;;;;;;;;;;;18.88;44.92;98291.59;5083363;28;19925;-71
2023/05/04 12:27:45;;;;;;;;;;;;;;;19.01;44.18;98281.00;5082300;28;19928;-72
2023/05/04 12:30:12;;;;;;;;;;;;;;;18.81;42.63;98287.72;5079022;28;19968;-72
2023/05/04 12:32:38;;;;;;;;;;;;;;;18.96;42.77;98278.44;5080312;28;19924;-72
2023/05/04 12:35:05;;;;;;;;;;;;;;;18.98;40.20;98281.63;5080190;28;19939;-72
2023/05/04 12:37:31;;;;;;;;;;;;;;;19.05;41.14;98277.38;5078232;28;19924;-72
2023/05/04 12:39:58;;;;;;;;;;;;;;;19.14;41.83;98270.13;5082087;28;19988;-71
2023/05/04 12:42:24;;;;;;;;;;;;;;;19.17;42.01;98269.50;5079090;28;19921;-71
2023/05/04 12:44:52;;;;;;;;;;;;;;;19.13;42.88;98268.50;5080552;28;19964;-72